| time (UTC) | temp F | wind direction | speed knots | gust knots | rain 1hr in | rain 24hr in | rain mn in | humidity % | barometer mb |
| 20260508064534 | 46 | 346 | 0.0 | 1.7 | 0.01 | 0.40 | 0.01 | 95 | 1014.9 |
| 20260508063016 | 46 | 346 | 0.0 | 0.0 | 0.01 | 0.40 | 0.01 | 95 | 1014.9 |
| 20260508061523 | 47 | 346 | 0.0 | 0.0 | 0.01 | 0.40 | 0.01 | 95 | 1014.9 |
| 20260508060023 | 47 | 346 | 0.0 | 1.7 | 0.01 | 0.40 | 0.01 | 95 | 1014.8 |
| 20260508054511 | 47 | 346 | 0.0 | 1.7 | 0.00 | 0.39 | 0.00 | 95 | 1014.7 |
| 20260508051516 | 48 | 346 | 0.0 | 1.7 | 0.00 | 0.39 | 0.00 | 95 | 1014.7 |
| 20260508050020 | 48 | 346 | 0.0 | 0.9 | 0.00 | 0.39 | 0.00 | 95 | 1014.6 |
| 20260508044522 | 48 | 346 | 0.0 | 1.7 | 0.00 | 0.39 | 0.00 | 95 | 1014.5 |
| 20260508043011 | 49 | 352 | 0.0 | 1.7 | 0.00 | 0.39 | 0.00 | 95 | 1014.2 |
| 20260508041516 | 49 | 68 | 0.0 | 0.0 | 0.00 | 0.39 | 0.00 | 95 | 1014.1 |
| 20260508040038 | 49 | 68 | 0.0 | 1.7 | 0.00 | 0.39 | 0.00 | 94 | 1014.2 |
| 20260508034536 | 49 | 68 | 0.0 | 0.0 | 0.00 | 0.39 | 0.39 | 94 | 1014.1 |
| 20260508033022 | 50 | 68 | 0.0 | 0.9 | 0.00 | 0.41 | 0.39 | 94 | 1014.1 |
| 20260508031519 | 50 | 68 | 0.0 | 0.0 | 0.00 | 0.44 | 0.39 | 94 | 1013.8 |
| 20260508030022 | 50 | 68 | 0.0 | 1.7 | 0.00 | 0.44 | 0.39 | 94 | 1013.8 |
| 20260508024525 | 51 | 68 | 0.0 | 0.0 | 0.00 | 0.45 | 0.39 | 94 | 1013.9 |
| 20260508023021 | 51 | 68 | 0.0 | 0.0 | 0.00 | 0.45 | 0.39 | 94 | 1013.4 |
| 20260508020014 | 52 | 68 | 0.0 | 0.0 | 0.00 | 0.47 | 0.39 | 93 | 1012.9 |
| 20260508014504 | 53 | 68 | 0.0 | 0.0 | 0.00 | 0.47 | 0.39 | 93 | 1012.8 |
| 20260508013005 | 54 | 68 | 0.0 | 0.9 | 0.00 | 0.47 | 0.39 | 93 | 1012.5 |
| 20260508011503 | 54 | 21 | 0.0 | 0.9 | 0.00 | 0.47 | 0.39 | 93 | 1012.2 |
| 20260508010004 | 55 | 21 | 0.0 | 0.0 | 0.00 | 0.48 | 0.39 | 93 | 1012.3 |
| 20260508004503 | 55 | 21 | 0.0 | 0.9 | 0.00 | 0.48 | 0.39 | 94 | 1012.1 |
| 20260508003004 | 56 | 21 | 0.0 | 0.9 | 0.00 | 0.48 | 0.39 | 93 | 1012.2 |
| 20260508001505 | 56 | 21 | 0.0 | 1.7 | 0.00 | 0.48 | 0.39 | 93 | 1012.3 |
| 20260508000006 | 56 | 21 | 0.0 | 1.7 | 0.00 | 0.48 | 0.39 | 93 | 1012.1 |
| 20260507234503 | 56 | 21 | 0.0 | 1.7 | 0.00 | 0.48 | 0.39 | 93 | 1011.8 |
| 20260507233004 | 56 | 21 | 0.0 | 0.0 | 0.00 | 0.48 | 0.39 | 93 | 1011.6 |
| 20260507231506 | 57 | 21 | 0.0 | 1.7 | 0.00 | 0.48 | 0.39 | 93 | 1011.2 |
| 20260507230013 | 57 | 61 | 0.0 | 2.6 | 0.00 | 0.48 | 0.39 | 93 | 1011.1 |
| 20260507223018 | 57 | 42 | 0.0 | 3.5 | 0.00 | 0.48 | 0.39 | 94 | 1011.0 |
| 20260507221529 | 57 | 244 | 0.0 | 2.6 | 0.00 | 0.48 | 0.39 | 92 | 1011.0 |
| 20260507220006 | 58 | 70 | 0.9 | 1.7 | 0.00 | 0.48 | 0.39 | 92 | 1010.7 |
| 20260507214509 | 58 | 55 | 0.0 | 1.7 | 0.00 | 0.48 | 0.39 | 92 | 1010.8 |
| 20260507213023 | 59 | 343 | 1.7 | 3.5 | 0.01 | 0.48 | 0.39 | 92 | 1010.7 |
| 20260507211520 | 58 | 34 | 0.0 | 1.7 | 0.03 | 0.48 | 0.39 | 95 | 1010.5 |
| 20260507210029 | 57 | 126 | 0.0 | 1.7 | 0.05 | 0.48 | 0.39 | 94 | 1010.7 |
| 20260507204508 | 57 | 38 | 0.0 | 2.6 | 0.08 | 0.48 | 0.39 | 94 | 1010.8 |
| 20260507203012 | 57 | 352 | 0.9 | 2.6 | 0.07 | 0.47 | 0.38 | 95 | 1010.4 |
| 20260507201517 | 56 | 352 | 0.9 | 2.6 | 0.05 | 0.45 | 0.36 | 93 | 1010.9 |
| 20260507200024 | 56 | 47 | 0.9 | 3.5 | 0.03 | 0.43 | 0.34 | 92 | 1010.8 |
| 20260507194511 | 57 | 49 | 0.0 | 1.7 | 0.00 | 0.40 | 0.31 | 92 | 1011.0 |
| 20260507193008 | 57 | 313 | 1.7 | 4.3 | 0.00 | 0.40 | 0.31 | 92 | 1010.5 |
| 20260507191504 | 57 | 82 | 0.9 | 7.0 | 0.00 | 0.40 | 0.31 | 91 | 1010.4 |
| 20260507190012 | 57 | 345 | 0.9 | 4.3 | 0.00 | 0.40 | 0.31 | 92 | 1010.7 |
| 20260507184504 | 58 | 67 | 0.9 | 5.2 | 0.00 | 0.40 | 0.31 | 92 | 1010.7 |
| 20260507183008 | 58 | 67 | 1.7 | 3.5 | 0.00 | 0.40 | 0.31 | 92 | 1010.9 |
| 20260507180012 | 59 | 123 | 0.0 | 5.2 | 0.00 | 0.40 | 0.31 | 94 | 1010.5 |
| 20260507174511 | 59 | 47 | 1.7 | 5.2 | 0.00 | 0.40 | 0.31 | 92 | 1011.0 |
| 20260507173017 | 60 | 31 | 0.9 | 3.5 | 0.00 | 0.40 | 0.31 | 93 | 1010.9 |
| 20260507171509 | 61 | 326 | 0.9 | 6.1 | 0.01 | 0.40 | 0.31 | 93 | 1010.9 |
| 20260507170016 | 61 | 304 | 0.9 | 2.6 | 0.01 | 0.40 | 0.31 | 93 | 1010.6 |
| 20260507164519 | 62 | 17 | 0.9 | 4.3 | 0.01 | 0.40 | 0.31 | 94 | 1010.1 |
| 20260507163008 | 63 | 51 | 0.9 | 2.6 | 0.01 | 0.40 | 0.31 | 95 | 1009.8 |
| 20260507161509 | 62 | 342 | 0.0 | 3.5 | 0.00 | 0.39 | 0.30 | 95 | 1010.2 |
| 20260507160007 | 62 | 92 | 0.0 | 3.5 | 0.00 | 0.39 | 0.30 | 94 | 1010.5 |
| 20260507153029 | 63 | 65 | 0.9 | 2.6 | 0.01 | 0.39 | 0.30 | 94 | 1010.8 |
| 20260507151524 | 64 | 44 | 0.9 | 1.7 | 0.01 | 0.39 | 0.30 | 95 | 1011.0 |
| 20260507150011 | 64 | 317 | 0.9 | 1.7 | 0.01 | 0.39 | 0.30 | 96 | 1010.8 |
| 20260507144518 | 64 | 30 | 0.0 | 1.7 | 0.04 | 0.39 | 0.30 | 96 | 1010.3 |
| 20260507143026 | 64 | 41 | 0.0 | 1.7 | 0.07 | 0.38 | 0.29 | 96 | 1010.3 |
| 20260507141526 | 63 | 286 | 0.0 | 1.7 | 0.09 | 0.38 | 0.29 | 96 | 1010.3 |
| 20260507140027 | 63 | 155 | 0.0 | 1.7 | 0.12 | 0.38 | 0.29 | 96 | 1010.3 |
| 20260507134514 | 63 | 225 | 0.0 | 1.7 | 0.15 | 0.35 | 0.26 | 96 | 1010.0 |
| 20260507133024 | 63 | 225 | 0.0 | 1.7 | 0.13 | 0.31 | 0.22 | 96 | 1010.0 |
| 20260507131515 | 63 | 225 | 0.0 | 1.7 | 0.12 | 0.29 | 0.20 | 95 | 1010.6 |
| 20260507130006 | 63 | 241 | 0.0 | 1.7 | 0.11 | 0.26 | 0.17 | 95 | 1011.2 |
| 20260507124516 | 63 | 294 | 0.0 | 0.0 | 0.06 | 0.20 | 0.11 | 95 | 1011.5 |
| 20260507121508 | 63 | 311 | 0.0 | 1.7 | 0.04 | 0.17 | 0.08 | 96 | 1011.0 |
| 20260507120008 | 63 | 325 | 0.0 | 1.7 | 0.02 | 0.15 | 0.06 | 96 | 1011.2 |
| 20260507114510 | 63 | 309 | 0.0 | 1.7 | 0.01 | 0.14 | 0.05 | 96 | 1011.0 |
| 20260507113032 | 63 | 103 | 0.0 | 1.7 | 0.00 | 0.13 | 0.04 | 95 | 1010.7 |
| 20260507111512 | 63 | 18 | 0.0 | 0.0 | 0.00 | 0.13 | 0.04 | 95 | 1010.7 |
| 20260507110011 | 63 | 52 | 0.0 | 0.0 | 0.00 | 0.13 | 0.04 | 95 | 1010.9 |
| 20260507104509 | 63 | 335 | 0.0 | 0.0 | 0.01 | 0.13 | 0.04 | 95 | 1010.6 |
| 20260507103019 | 63 | 184 | 0.0 | 0.0 | 0.01 | 0.13 | 0.04 | 95 | 1010.4 |
| 20260507101517 | 63 | 144 | 0.0 | 1.7 | 0.01 | 0.13 | 0.04 | 95 | 1010.5 |
| 20260507100016 | 63 | 93 | 0.0 | 1.7 | 0.01 | 0.13 | 0.04 | 95 | 1010.5 |
| 20260507094507 | 63 | 89 | 0.0 | 1.7 | 0.00 | 0.12 | 0.03 | 95 | 1010.8 |
| 20260507093012 | 63 | 88 | 0.0 | 1.7 | 0.00 | 0.12 | 0.03 | 95 | 1010.4 |
| 20260507091514 | 63 | 301 | 0.9 | 1.7 | 0.00 | 0.12 | 0.03 | 95 | 1011.0 |
| 20260507090016 | 63 | 290 | 0.0 | 1.7 | 0.01 | 0.12 | 0.03 | 95 | 1010.9 |
| 20260507084517 | 63 | 290 | 0.0 | 1.7 | 0.01 | 0.12 | 0.03 | 95 | 1010.0 |
| 20260507083012 | 63 | 32 | 0.0 | 1.7 | 0.02 | 0.12 | 0.03 | 95 | 1010.2 |
| 20260507081520 | 63 | 331 | 0.0 | 1.7 | 0.02 | 0.12 | 0.03 | 95 | 1010.3 |
| 20260507080015 | 63 | 169 | 0.0 | 1.7 | 0.02 | 0.11 | 0.02 | 95 | 1010.2 |
| 20260507073017 | 63 | 247 | 0.0 | 1.7 | 0.01 | 0.10 | 0.01 | 95 | 1011.2 |
| 20260507071512 | 63 | 162 | 0.0 | 1.7 | 0.01 | 0.10 | 0.01 | 94 | 1011.1 |
| 20260507070016 | 63 | 5 | 0.0 | 1.7 | 0.00 | 0.09 | 0.00 | 94 | 1011.3 |